Time;durP1;ratioP1;P1;durP2;ratioP2;P2;SDS_P1;SDS_P2;PMS_P1;PMS_P2;Temp;Humidity;BMP_temperature;BMP_pressure;BME280_temperature;BME280_humidity;BME280_pressure;Samples;Min_cycle;Max_cycle;Signal;HPM_P1;HPM_P2
2021/03/15 00:00:13;;;;;;;20.30;3.80;;;8.00;99.90;;;;;;5053114;28;20515;-75
2021/03/15 00:02:40;;;;;;;22.07;3.57;;;8.00;99.90;;;;;;5052286;28;20233;-77
2021/03/15 00:05:10;;;;;;;16.97;4.30;;;8.00;99.90;;;;;;5053983;28;20258;-76
2021/03/15 00:07:36;;;;;;;19.77;3.67;;;8.10;99.90;;;;;;5056521;28;20168;-75
2021/03/15 00:10:04;;;;;;;13.87;3.27;;;8.10;99.90;;;;;;5057065;28;20225;-75
2021/03/15 00:12:30;;;;;;;13.20;3.33;;;8.10;99.90;;;;;;5056546;28;20171;-75
2021/03/15 00:14:55;;;;;;;20.00;4.17;;;8.10;99.90;;;;;;5056794;28;20164;-75
2021/03/15 00:17:21;;;;;;;21.70;3.53;;;8.10;99.90;;;;;;5056805;28;20198;-75
2021/03/15 00:19:47;;;;;;;15.93;3.50;;;8.10;99.90;;;;;;5038744;28;20198;-75
2021/03/15 00:22:13;;;;;;;16.50;3.50;;;8.00;99.90;;;;;;5038429;28;20179;-75
2021/03/15 00:24:38;;;;;;;17.07;3.90;;;8.00;99.90;;;;;;5022195;28;20266;-75
2021/03/15 00:27:04;;;;;;;19.97;3.93;;;8.00;99.90;;;;;;5056523;28;20186;-76
2021/03/15 00:29:30;;;;;;;15.80;4.63;;;8.00;99.90;;;;;;5038128;28;20632;-76
2021/03/15 00:31:55;;;;;;;17.93;4.00;;;8.00;99.90;;;;;;5056463;28;20236;-75
2021/03/15 00:34:21;;;;;;;15.87;3.80;;;8.10;99.90;;;;;;5056544;28;20255;-75
2021/03/15 00:36:47;;;;;;;15.53;4.20;;;8.10;99.90;;;;;;5038507;28;20224;-75
2021/03/15 00:39:13;;;;;;;18.07;4.23;;;8.10;99.90;;;;;;5056501;28;20179;-75
2021/03/15 00:41:39;;;;;;;15.00;4.50;;;8.10;99.90;;;;;;5056328;28;20178;-76
2021/03/15 00:44:05;;;;;;;12.07;3.97;;;8.10;99.90;;;;;;5056187;28;20171;-76
2021/03/15 00:46:31;;;;;;;15.90;4.03;;;8.10;99.90;;;;;;5056501;28;20224;-75
2021/03/15 00:48:57;;;;;;;14.57;4.90;;;8.10;99.90;;;;;;5056096;28;20623;-75
2021/03/15 00:51:23;;;;;;;16.50;4.07;;;8.30;99.90;;;;;;5037756;28;20179;-75
2021/03/15 00:53:50;;;;;;;14.47;4.53;;;8.30;99.90;;;;;;5037452;28;20236;-75
2021/03/15 00:56:16;;;;;;;17.50;4.65;;;8.20;99.90;;;;;;5038015;28;20174;-75
2021/03/15 00:58:42;;;;;;;15.90;4.90;;;8.30;99.90;;;;;;5038236;28;20616;-75
2021/03/15 01:01:08;;;;;;;20.05;5.15;;;8.40;99.90;;;;;;5055665;28;20187;-76
2021/03/15 01:03:33;;;;;;;23.23;5.50;;;8.40;99.90;;;;;;5037951;28;20167;-76
2021/03/15 01:05:59;;;;;;;16.67;5.10;;;8.50;99.90;;;;;;5038270;28;20175;-75
2021/03/15 01:08:26;;;;;;;21.75;5.32;;;8.50;99.90;;;;;;5038072;28;20656;-75
2021/03/15 01:10:52;;;;;;;10.57;4.55;;;8.40;99.90;;;;;;5037881;28;20171;-74
2021/03/15 01:13:17;;;;;;;14.43;5.20;;;8.50;99.90;;;;;;5055306;28;20183;-75
2021/03/15 01:15:44;;;;;;;10.20;4.90;;;8.50;99.90;;;;;;5021183;28;20186;-75
2021/03/15 01:18:10;;;;;;;17.73;6.00;;;8.50;99.90;;;;;;5037828;28;20221;-75
2021/03/15 01:20:37;;;;;;;18.13;5.40;;;8.50;99.90;;;;;;5037816;28;20615;-75
2021/03/15 01:23:03;;;;;;;19.83;5.68;;;8.50;99.90;;;;;;5031342;28;20184;-74
2021/03/15 01:25:35;;;;;;;17.48;5.57;;;8.50;99.90;;;;;;5055738;28;20172;-74
2021/03/15 01:28:02;;;;;;;18.30;7.22;;;8.50;99.90;;;;;;5037567;28;20203;-75
2021/03/15 01:30:30;;;;;;;13.75;5.68;;;8.60;99.90;;;;;;5037559;28;20167;-75
2021/03/15 01:32:56;;;;;;;20.77;5.63;;;8.60;99.90;;;;;;5054435;28;20662;-75
2021/03/15 01:35:23;;;;;;;21.17;6.15;;;8.60;99.90;;;;;;5055185;28;20573;-75
2021/03/15 01:37:48;;;;;;;19.37;6.70;;;8.60;99.90;;;;;;5055279;28;20222;-75
2021/03/15 01:40:15;;;;;;;24.83;6.03;;;8.60;99.90;;;;;;5037262;28;20199;-75
2021/03/15 01:42:41;;;;;;;19.02;6.20;;;8.50;99.90;;;;;;5054985;28;20630;-75
2021/03/15 01:45:08;;;;;;;16.13;5.90;;;8.60;99.90;;;;;;5037013;28;20187;-75
2021/03/15 01:47:34;;;;;;;16.20;6.38;;;8.70;99.90;;;;;;5037605;28;20191;-75
2021/03/15 01:50:00;;;;;;;24.63;7.20;;;8.60;99.90;;;;;;5037336;28;20178;-75
2021/03/15 01:52:26;;;;;;;17.05;7.28;;;8.60;99.90;;;;;;5036815;28;20536;-75
2021/03/15 01:54:52;;;;;;;17.13;7.55;;;8.60;99.90;;;;;;5054763;28;20187;-75
2021/03/15 01:57:18;;;;;;;21.20;8.02;;;8.60;99.90;;;;;;5054613;28;20817;-75
2021/03/15 01:59:44;;;;;;;25.10;7.93;;;8.60;99.90;;;;;;5054993;28;20309;-75
2021/03/15 02:02:11;;;;;;;23.52;8.75;;;8.60;99.90;;;;;;5054732;28;20285;-75
2021/03/15 02:04:36;;;;;;;19.52;8.82;;;8.60;99.90;;;;;;5036744;28;20310;-75
2021/03/15 02:07:03;;;;;;;19.23;8.50;;;8.70;99.90;;;;;;5036231;28;20600;-75
2021/03/15 02:09:28;;;;;;;18.90;9.15;;;8.70;99.90;;;;;;5054822;28;20221;-74
2021/03/15 02:12:09;;;;;;;24.48;9.32;;;8.70;99.90;;;;;;5054324;28;20171;-76
2021/03/15 02:15:02;;;;;;;27.42;10.50;;;8.70;99.90;;;;;;5035168;28;20226;-75
2021/03/15 02:17:42;;;;;;;27.52;10.48;;;8.70;99.90;;;;;;5053373;28;20203;-75
2021/03/15 02:20:36;;;;;;;24.05;10.32;;;8.70;99.90;;;;;;5036795;28;20172;-75
2021/03/15 02:23:09;;;;;;;28.80;10.68;;;8.70;99.90;;;;;;5054248;28;20214;-75
2021/03/15 02:26:03;;;;;;;24.30;10.00;;;8.70;99.90;;;;;;5036577;28;20198;-75
2021/03/15 02:29:00;;;;;;;21.63;9.70;;;8.80;99.90;;;;;;5033811;28;20195;-75
2021/03/15 02:31:53;;;;;;;18.67;9.60;;;8.80;99.90;;;;;;5042721;28;20186;-75
2021/03/15 02:34:43;;;;;;;21.70;8.38;;;8.80;99.90;;;;;;5053367;28;20635;-75
2021/03/15 02:37:12;;;;;;;19.48;8.50;;;9.00;99.90;;;;;;5053918;28;20195;-76
2021/03/15 02:39:46;;;;;;;15.15;7.90;;;9.00;99.90;;;;;;5053932;28;20180;-75
2021/03/15 02:42:18;;;;;;;16.65;8.32;;;9.10;99.90;;;;;;5034333;28;20164;-75
2021/03/15 02:44:47;;;;;;;25.17;8.70;;;9.10;99.90;;;;;;5043397;28;20160;-75
2021/03/15 02:47:21;;;;;;;16.48;8.80;;;9.20;99.90;;;;;;5053822;28;20237;-75
2021/03/15 02:49:52;;;;;;;25.70;9.45;;;9.10;99.90;;;;;;5034034;28;20159;-75
2021/03/15 02:52:19;;;;;;;21.15;9.02;;;9.00;99.90;;;;;;5016673;28;20218;-75
2021/03/15 02:54:46;;;;;;;17.30;8.90;;;9.00;99.90;;;;;;5042793;28;20175;-75
2021/03/15 02:57:16;;;;;;;15.23;7.22;;;9.00;99.90;;;;;;5053408;28;20210;-75
2021/03/15 02:59:43;;;;;;;10.10;4.97;;;9.00;99.90;;;;;;5053471;28;20232;-75
2021/03/15 03:02:10;;;;;;;5.25;4.10;;;9.00;99.90;;;;;;5035598;28;20194;-76
2021/03/15 03:04:37;;;;;;;8.70;3.00;;;8.90;99.90;;;;;;5014734;28;20216;-75
2021/03/15 03:07:05;;;;;;;7.13;2.85;;;8.80;99.90;;;;;;5016121;28;20275;-75
2021/03/15 03:09:33;;;;;;;8.52;2.67;;;8.70;99.90;;;;;;5024956;28;20683;-75
2021/03/15 03:12:00;;;;;;;10.63;3.20;;;8.70;99.90;;;;;;5035796;28;20581;-75
2021/03/15 03:14:27;;;;;;;6.78;2.55;;;8.70;99.90;;;;;;5053073;28;20254;-75
2021/03/15 03:16:55;;;;;;;8.00;3.05;;;8.70;99.90;;;;;;5053199;28;20199;-75
2021/03/15 03:19:23;;;;;;;7.10;3.95;;;8.80;99.90;;;;;;5053194;28;20163;-75
2021/03/15 03:21:50;;;;;;;7.75;3.85;;;8.80;99.90;;;;;;5053556;28;20242;-75
2021/03/15 03:24:18;;;;;;;10.45;4.47;;;8.80;99.90;;;;;;5035697;28;20167;-75
2021/03/15 03:26:45;;;;;;;16.40;5.40;;;8.80;99.90;;;;;;5053273;28;20635;-75
2021/03/15 03:29:13;;;;;;;8.50;6.47;;;8.70;99.90;;;;;;5035834;28;20178;-75
2021/03/15 03:31:44;;;;;;;14.35;7.68;;;8.70;99.90;;;;;;5034995;28;20186;-74
2021/03/15 03:34:10;;;;;;;19.98;8.20;;;8.70;99.90;;;;;;5053146;28;20167;-75
2021/03/15 03:36:37;;;;;;;14.43;8.57;;;8.70;99.90;;;;;;5053314;28;20179;-75
2021/03/15 03:39:07;;;;;;;20.33;10.07;;;8.70;99.90;;;;;;5054661;28;20638;-74
2021/03/15 03:41:33;;;;;;;22.70;10.20;;;8.70;99.90;;;;;;5041602;28;20575;-75
2021/03/15 03:43:59;;;;;;;16.70;9.40;;;8.80;99.90;;;;;;5059829;28;20171;-76
2021/03/15 03:46:24;;;;;;;14.02;9.18;;;8.90;99.90;;;;;;5059771;28;20233;-75
2021/03/15 03:48:52;;;;;;;21.00;10.10;;;8.80;99.90;;;;;;5059942;28;20171;-75
2021/03/15 03:51:21;;;;;;;21.60;10.52;;;8.70;99.90;;;;;;5041712;28;20689;-75
2021/03/15 03:54:01;;;;;;;12.18;8.48;;;8.70;99.90;;;;;;5045808;28;20248;-74
2021/03/15 03:57:01;;;;;;;20.02;9.80;;;8.70;99.90;;;;;;5059598;28;20541;-75
2021/03/15 03:59:30;;;;;;;12.98;9.55;;;8.70;99.90;;;;;;5041898;28;20175;-75
2021/03/15 04:07:50;;;;;;;18.27;9.27;;;8.70;99.90;;;;;;5058270;28;20195;-75
2021/03/15 04:10:16;;;;;;;20.42;9.25;;;8.60;99.90;;;;;;5040954;28;20581;-75
2021/03/15 04:12:51;;;;;;;16.40;9.77;;;8.50;99.90;;;;;;5059144;28;20167;-75
2021/03/15 04:15:18;;;;;;;20.58;9.77;;;8.50;99.90;;;;;;5041492;28;20170;-75
2021/03/15 04:17:44;;;;;;;13.82;10.10;;;8.40;99.90;;;;;;5058098;28;20203;-75
2021/03/15 04:20:29;;;;;;;16.35;9.77;;;8.40;99.90;;;;;;5041295;28;20581;-75
2021/03/15 04:22:57;;;;;;;16.60;9.73;;;8.30;99.90;;;;;;5041717;28;20171;-75
2021/03/15 04:25:26;;;;;;;19.42;10.32;;;8.20;99.90;;;;;;5054445;28;20201;-75
2021/03/15 04:27:55;;;;;;;13.60;10.10;;;8.10;99.90;;;;;;5059566;28;20167;-75
2021/03/15 04:30:22;;;;;;;13.73;8.03;;;8.00;99.90;;;;;;5059146;28;20689;-75
2021/03/15 04:32:53;;;;;;;14.03;8.77;;;7.90;99.90;;;;;;5039610;28;20195;-75
2021/03/15 04:35:26;;;;;;;15.20;8.70;;;7.70;99.90;;;;;;5040506;28;20167;-75
2021/03/15 04:37:53;;;;;;;15.13;7.60;;;7.60;99.90;;;;;;5040787;28;20238;-75
2021/03/15 04:40:21;;;;;;;12.97;8.33;;;7.50;99.90;;;;;;5059183;28;20163;-75
2021/03/15 04:42:47;;;;;;;13.83;8.50;;;7.50;99.90;;;;;;5058982;28;20175;-75
2021/03/15 04:45:15;;;;;;;12.80;7.88;;;7.50;99.90;;;;;;5058343;28;20179;-76
2021/03/15 04:47:41;;;;;;;12.23;8.00;;;7.50;99.90;;;;;;5058913;28;20624;-75
2021/03/15 04:50:10;;;;;;;13.93;8.50;;;7.40;99.90;;;;;;5023977;28;20179;-75
2021/03/15 04:52:37;;;;;;;18.60;9.67;;;7.40;99.90;;;;;;5037849;28;20168;-75
2021/03/15 04:55:07;;;;;;;16.50;10.40;;;7.40;99.90;;;;;;5037786;28;20183;-75
2021/03/15 04:57:35;;;;;;;17.33;9.13;;;7.40;99.90;;;;;;5055384;28;20202;-75
2021/03/15 05:00:07;;;;;;;19.50;9.10;;;7.30;99.90;;;;;;5055488;28;20184;-75
2021/03/15 05:02:34;;;;;;;16.87;8.20;;;7.30;99.90;;;;;;5037976;28;20171;-75
2021/03/15 05:05:01;;;;;;;14.77;9.10;;;7.20;99.90;;;;;;5037445;28;20210;-75
2021/03/15 05:07:30;;;;;;;11.53;7.87;;;7.20;99.90;;;;;;5037091;28;20179;-76
2021/03/15 05:09:56;;;;;;;15.33;7.80;;;7.30;99.90;;;;;;5037759;28;20522;-75
2021/03/15 05:12:22;;;;;;;9.17;8.03;;;7.40;99.90;;;;;;5055359;28;20160;-75
2021/03/15 05:14:49;;;;;;;15.77;8.53;;;7.40;99.90;;;;;;5037365;28;20213;-75
2021/03/15 05:17:15;;;;;;;16.67;8.03;;;7.50;99.90;;;;;;5054958;28;20207;-76
2021/03/15 05:19:43;;;;;;;12.73;6.97;;;7.60;99.90;;;;;;5055418;28;20182;-75
2021/03/15 05:22:11;;;;;;;18.63;7.97;;;7.60;99.90;;;;;;5021039;28;20178;-74
2021/03/15 05:24:37;;;;;;;18.53;7.43;;;7.60;99.90;;;;;;5055387;28;20167;-75
2021/03/15 05:27:05;;;;;;;12.10;7.30;;;7.60;99.90;;;;;;5019577;28;20187;-75
2021/03/15 05:29:32;;;;;;;12.53;5.80;;;7.50;99.90;;;;;;5055150;28;20197;-75
2021/03/15 05:32:00;;;;;;;12.53;6.03;;;7.60;99.90;;;;;;5054973;28;20198;-75
2021/03/15 05:34:26;;;;;;;15.63;7.00;;;7.50;99.90;;;;;;5055114;28;20198;-74
2021/03/15 05:36:56;;;;;;;16.00;6.37;;;7.50;99.90;;;;;;5037077;28;20203;-75
2021/03/15 05:39:21;;;;;;;9.77;6.77;;;7.50;99.90;;;;;;5054409;28;20175;-75
2021/03/15 05:42:14;;;;;;;15.17;7.63;;;7.40;99.90;;;;;;5036947;28;20190;-75
2021/03/15 05:45:06;;;;;;;15.00;7.67;;;7.30;99.90;;;;;;5055333;28;20255;-76
2021/03/15 05:47:56;;;;;;;11.47;7.77;;;7.30;99.90;;;;;;5054872;28;20490;-75
2021/03/15 05:50:59;;;;;;;13.17;8.00;;;7.30;99.90;;;;;;5054654;28;20167;-75
2021/03/15 05:53:48;;;;;;;12.47;7.67;;;7.30;99.90;;;;;;5054757;28;20170;-75
2021/03/15 05:56:35;;;;;;;15.67;8.70;;;7.30;99.90;;;;;;5054649;28;20179;-75
2021/03/15 05:59:26;;;;;;;14.47;7.90;;;7.30;99.90;;;;;;5054183;28;20236;-75
2021/03/15 06:02:27;;;;;;;12.80;8.00;;;7.30;99.90;;;;;;5053584;28;20569;-75
2021/03/15 06:05:24;;;;;;;19.10;8.23;;;7.20;99.90;;;;;;5005263;28;20257;-76
2021/03/15 06:08:20;;;;;;;16.07;8.20;;;7.20;99.90;;;;;;5054341;28;20639;-77
2021/03/15 06:11:04;;;;;;;12.07;9.00;;;7.20;99.90;;;;;;5027585;28;20167;-75
2021/03/15 06:13:32;;;;;;;11.73;9.13;;;7.40;99.90;;;;;;5054652;28;20581;-75
2021/03/15 06:16:00;;;;;;;18.87;9.77;;;7.60;99.90;;;;;;5054187;28;20168;-75
2021/03/15 06:18:27;;;;;;;17.23;10.03;;;7.70;99.90;;;;;;5053973;28;20234;-75
2021/03/15 06:20:54;;;;;;;21.87;11.33;;;7.90;99.90;;;;;;5035820;28;20588;-75
2021/03/15 06:23:20;;;;;;;25.47;12.43;;;8.00;99.90;;;;;;5036021;28;20168;-75
2021/03/15 06:25:48;;;;;;;24.80;12.13;;;8.00;99.90;;;;;;5036261;28;20632;-75
2021/03/15 06:28:15;;;;;;;39.77;12.20;;;7.90;99.90;;;;;;5054127;28;20180;-75
2021/03/15 06:30:42;;;;;;;20.17;12.20;;;8.00;99.90;;;;;;5035052;28;20662;-76
2021/03/15 06:33:08;;;;;;;29.40;12.17;;;8.10;99.90;;;;;;5053946;28;20226;-75
2021/03/15 06:35:40;;;;;;;25.10;11.00;;;8.10;99.90;;;;;;5053811;28;20195;-75
2021/03/15 06:38:06;;;;;;;26.10;10.23;;;8.10;99.90;;;;;;5053473;28;20195;-75
2021/03/15 06:40:33;;;;;;;20.02;10.60;;;8.00;99.90;;;;;;5053917;28;20658;-75
2021/03/15 06:43:02;;;;;;;20.40;9.63;;;8.00;99.90;;;;;;5053507;28;20180;-75
2021/03/15 06:45:29;;;;;;;22.00;10.13;;;8.10;99.90;;;;;;5053954;28;20217;-75
2021/03/15 06:47:55;;;;;;;18.58;9.88;;;8.30;99.90;;;;;;5035825;28;20171;-75
2021/03/15 06:50:22;;;;;;;25.75;9.15;;;8.50;99.90;;;;;;5035386;28;20179;-75
2021/03/15 06:52:51;;;;;;;21.63;8.70;;;8.70;99.90;;;;;;5035364;28;20262;-75
2021/03/15 06:55:17;;;;;;;23.02;8.63;;;8.80;99.90;;;;;;5053826;28;20164;-74
2021/03/15 06:57:43;;;;;;;32.25;9.43;;;8.90;99.90;;;;;;5035629;28;20226;-75
2021/03/15 07:00:09;;;;;;;19.13;7.70;;;8.90;99.90;;;;;;5053123;28;20623;-75
2021/03/15 07:02:35;;;;;;;16.38;8.38;;;9.00;99.90;;;;;;5035214;28;20572;-74
2021/03/15 07:05:12;;;;;;;26.13;8.55;;;9.10;99.90;;;;;;5052870;28;20260;-75
2021/03/15 07:07:39;;;;;;;16.33;7.63;;;9.10;99.90;;;;;;5035348;28;20696;-75
2021/03/15 07:10:18;;;;;;;10.98;7.47;;;9.20;99.90;;;;;;5052949;28;20178;-75
2021/03/15 07:12:44;;;;;;;16.17;7.95;;;9.40;99.90;;;;;;5053290;28;20662;-75
2021/03/15 07:15:10;;;;;;;17.98;7.32;;;9.50;99.90;;;;;;5052864;28;20172;-75
2021/03/15 07:17:36;;;;;;;22.67;7.75;;;9.60;99.90;;;;;;5053023;28;20289;-75
2021/03/15 07:20:04;;;;;;;24.15;7.63;;;9.50;99.90;;;;;;5035716;28;20250;-75
2021/03/15 07:22:30;;;;;;;27.02;7.47;;;9.60;99.90;;;;;;5053171;28;20206;-75
2021/03/15 07:25:21;;;;;;;16.02;6.50;;;9.60;99.90;;;;;;5052789;28;20207;-76
2021/03/15 07:27:53;;;;;;;20.30;7.28;;;9.60;99.90;;;;;;5029989;28;20222;-75
2021/03/15 07:30:35;;;;;;;23.73;7.95;;;9.80;99.90;;;;;;5036366;28;20561;-75
2021/03/15 07:33:14;;;;;;;15.20;6.43;;;9.90;99.90;;;;;;5052971;28;20682;-75
2021/03/15 07:35:41;;;;;;;14.35;6.38;;;10.10;99.90;;;;;;5052742;28;20657;-75
2021/03/15 07:38:07;;;;;;;18.73;6.57;;;10.10;99.90;;;;;;5034776;28;20199;-75
2021/03/15 07:40:44;;;;;;;18.75;6.47;;;9.90;99.90;;;;;;5035103;28;20183;-76
2021/03/15 07:43:15;;;;;;;16.85;6.30;;;10.00;99.90;;;;;;5053354;28;20168;-75
2021/03/15 07:45:47;;;;;;;23.77;7.65;;;10.00;99.90;;;;;;5035266;28;20728;-75
2021/03/15 07:48:21;;;;;;;22.67;7.65;;;9.90;99.90;;;;;;5052663;28;20194;-75
2021/03/15 07:50:54;;;;;;;16.25;5.80;;;9.80;99.90;;;;;;5034792;28;20181;-75
2021/03/15 07:53:43;;;;;;;21.30;7.45;;;10.00;99.90;;;;;;5053049;28;20187;-76
2021/03/15 07:56:11;;;;;;;12.80;5.15;;;11.40;99.90;;;;;;5052683;28;20250;-75
2021/03/15 07:58:40;;;;;;;9.75;4.30;;;15.30;99.90;;;;;;5052593;28;20225;-75
2021/03/15 08:01:07;;;;;;;13.18;4.32;;;17.90;99.90;;;;;;5052721;28;20258;-75
2021/03/15 08:03:36;;;;;;;9.95;3.40;;;17.80;99.90;;;;;;5034908;28;20185;-75
2021/03/15 08:15:10;;;;;;;9.95;2.85;;;24.70;99.90;;;;;;5052473;28;20539;-75
2021/03/15 08:17:37;;;;;;;8.85;3.08;;;22.50;99.90;;;;;;5051220;28;20674;-75
2021/03/15 08:20:07;;;;;;;6.88;2.50;;;20.30;99.90;;;;;;5033783;28;20198;-74
2021/03/15 08:22:38;;;;;;;11.38;3.13;;;19.30;99.90;;;;;;5052545;28;20195;-75
2021/03/15 08:25:08;;;;;;;7.40;2.92;;;17.90;99.90;;;;;;5051990;28;20163;-75
2021/03/15 08:27:40;;;;;;;9.50;2.92;;;17.40;99.90;;;;;;5056182;28;20546;-75
2021/03/15 08:30:14;;;;;;;10.85;3.03;;;18.30;99.90;;;;;;5056023;28;20171;-75
2021/03/15 08:32:42;;;;;;;16.27;3.10;;;18.50;99.90;;;;;;5036181;28;20195;-75
2021/03/15 08:35:08;;;;;;;7.13;2.67;;;17.40;99.90;;;;;;5056025;28;20206;-75
2021/03/15 08:37:55;;;;;;;14.70;3.05;;;16.30;99.90;;;;;;5056059;28;20206;-75
2021/03/15 08:40:40;;;;;;;8.45;2.53;;;15.40;99.90;;;;;;5056212;28;20163;-76
2021/03/15 08:43:18;;;;;;;12.40;2.90;;;14.70;99.90;;;;;;5038083;28;20179;-75
2021/03/15 08:45:53;;;;;;;7.85;2.40;;;14.20;99.90;;;;;;5038066;28;20197;-75
2021/03/15 08:48:39;;;;;;;6.40;2.13;;;13.90;99.90;;;;;;5055851;28;20190;-75
2021/03/15 08:51:12;;;;;;;8.68;1.70;;;15.30;99.90;;;;;;5038582;28;20184;-75
2021/03/15 08:53:37;;;;;;;11.63;1.80;;;17.20;99.90;;;;;;5042215;28;20263;-75
2021/03/15 08:56:09;;;;;;;3.88;1.52;;;20.30;99.90;;;;;;5037474;28;20699;-75
2021/03/15 08:58:45;;;;;;;8.23;2.05;;;22.60;99.90;;;;;;5037642;28;20203;-75
2021/03/15 09:01:16;;;;;;;8.52;1.77;;;23.50;99.90;;;;;;5055652;28;20171;-75
2021/03/15 09:03:45;;;;;;;8.70;1.88;;;24.70;99.90;;;;;;5036920;28;20225;-75
2021/03/15 09:06:10;;;;;;;6.15;2.13;;;24.60;99.10;;;;;;5055762;28;20175;-76
2021/03/15 09:08:59;;;;;;;11.10;2.00;;;24.50;98.60;;;;;;5037923;28;20530;-76
2021/03/15 09:11:36;;;;;;;4.03;1.52;;;24.70;98.00;;;;;;5055926;28;20160;-75
2021/03/15 09:14:17;;;;;;;6.25;1.75;;;24.20;97.30;;;;;;5036874;28;20179;-75
2021/03/15 09:16:57;;;;;;;4.63;1.60;;;22.50;99.90;;;;;;5037613;28;20201;-75
2021/03/15 09:19:44;;;;;;;8.25;1.70;;;20.60;99.90;;;;;;5055689;28;20185;-77
2021/03/15 09:22:16;;;;;;;5.43;1.95;;;18.50;99.90;;;;;;5055653;28;20159;-75
2021/03/15 09:24:46;;;;;;;6.95;2.22;;;18.20;99.90;;;;;;5054685;28;20172;-75
2021/03/15 09:27:30;;;;;;;4.85;1.50;;;19.40;99.90;;;;;;5055047;28;20229;-75
2021/03/15 09:30:16;;;;;;;5.07;1.73;;;19.90;99.90;;;;;;5055528;28;20694;-75
2021/03/15 09:32:54;;;;;;;5.32;1.60;;;18.30;99.90;;;;;;5055140;28;20274;-75
2021/03/15 09:35:33;;;;;;;6.28;1.67;;;19.80;99.90;;;;;;5054912;28;20178;-77
2021/03/15 09:38:03;;;;;;;8.60;1.70;;;22.40;99.90;;;;;;5036275;28;20233;-75
2021/03/15 09:40:38;;;;;;;3.80;1.60;;;23.30;98.80;;;;;;5052451;28;20211;-75
2021/03/15 09:43:04;;;;;;;10.13;1.92;;;21.90;99.90;;;;;;5034203;28;20225;-77
2021/03/15 09:45:40;;;;;;;5.50;1.23;;;20.20;99.90;;;;;;5054196;28;20167;-75
2021/03/15 09:48:17;;;;;;;6.95;2.08;;;18.50;99.90;;;;;;5054772;28;20182;-75
2021/03/15 09:51:08;;;;;;;6.60;1.95;;;17.10;99.90;;;;;;5036438;28;20533;-75
2021/03/15 09:53:34;;;;;;;8.23;2.40;;;16.00;99.90;;;;;;5036647;28;20648;-75
2021/03/15 09:56:10;;;;;;;16.48;3.47;;;14.90;99.90;;;;;;5054531;28;20649;-75
2021/03/15 09:58:36;;;;;;;11.18;2.45;;;14.00;99.90;;;;;;5036778;28;20206;-75
2021/03/15 10:01:18;;;;;;;7.88;2.33;;;15.70;99.90;;;;;;5054385;28;20175;-75
2021/03/15 10:03:54;;;;;;;7.97;1.63;;;16.70;99.90;;;;;;5054134;28;20546;-75
2021/03/15 10:06:23;;;;;;;9.43;2.22;;;19.80;99.90;;;;;;5004532;28;20175;-76
2021/03/15 10:08:54;;;;;;;10.77;2.47;;;21.00;99.90;;;;;;5054487;28;20187;-76
2021/03/15 10:11:21;;;;;;;12.18;1.98;;;21.80;99.90;;;;;;5035888;28;20194;-76
2021/03/15 10:14:03;;;;;;;11.32;2.25;;;24.20;99.10;;;;;;5054251;28;20183;-76
2021/03/15 10:16:29;;;;;;;9.13;1.85;;;23.60;96.50;;;;;;5054668;28;20163;-76
2021/03/15 10:18:55;;;;;;;11.23;2.40;;;21.40;97.40;;;;;;5036147;28;20217;-75
2021/03/15 10:21:28;;;;;;;10.85;2.17;;;21.60;98.00;;;;;;5054004;28;20163;-75
2021/03/15 10:23:54;;;;;;;9.45;2.35;;;22.60;96.60;;;;;;5035562;28;20205;-75
2021/03/15 10:26:23;;;;;;;7.18;2.00;;;23.70;94.90;;;;;;5036140;28;20620;-76
2021/03/15 10:28:53;;;;;;;9.13;2.60;;;24.60;93.30;;;;;;5036558;28;20197;-76
2021/03/15 10:31:22;;;;;;;7.60;2.22;;;24.30;93.50;;;;;;5054273;28;20187;-76
2021/03/15 10:33:49;;;;;;;9.68;2.08;;;24.90;92.10;;;;;;5036121;28;20175;-78
2021/03/15 10:36:20;;;;;;;8.25;2.05;;;25.50;90.20;;;;;;5053792;28;20274;-77
2021/03/15 10:38:47;;;;;;;8.75;2.30;;;24.70;91.10;;;;;;5053994;28;20210;-77
2021/03/15 10:41:13;;;;;;;9.82;2.35;;;26.00;92.10;;;;;;5029617;28;20175;-76
2021/03/15 10:43:43;;;;;;;9.60;1.70;;;26.60;89.60;;;;;;5053922;28;20254;-77
2021/03/15 10:46:22;;;;;;;7.95;2.20;;;23.40;90.40;;;;;;5035816;28;20807;-76
2021/03/15 10:48:48;;;;;;;8.13;2.20;;;20.90;92.30;;;;;;5035308;28;20213;-77
2021/03/15 10:51:14;;;;;;;8.48;2.33;;;20.80;94.30;;;;;;5018498;28;20199;-76
2021/03/15 10:53:44;;;;;;;5.82;1.40;;;19.10;96.10;;;;;;5053985;28;20171;-76
2021/03/15 10:56:16;;;;;;;14.35;2.33;;;17.40;97.10;;;;;;5052440;28;20171;-76
2021/03/15 10:58:43;;;;;;;7.57;1.40;;;16.10;99.00;;;;;;5035320;28;20209;-75
2021/03/15 11:01:11;;;;;;;10.68;2.28;;;15.70;99.80;;;;;;5053714;28;20187;-76
2021/03/15 11:03:37;;;;;;;7.82;1.98;;;16.40;99.90;;;;;;5053734;28;20174;-76
2021/03/15 11:06:06;;;;;;;9.00;1.70;;;19.30;98.10;;;;;;5035486;28;20543;-77
2021/03/15 11:08:33;;;;;;;10.77;1.70;;;20.70;96.50;;;;;;5053449;28;20182;-76
2021/03/15 11:11:23;;;;;;;6.57;1.90;;;22.70;93.60;;;;;;5053027;28;20283;-78
2021/03/15 11:13:54;;;;;;;17.25;1.75;;;24.00;91.60;;;;;;5035586;28;20176;-76
2021/03/15 11:16:31;;;;;;;7.45;1.63;;;23.00;91.30;;;;;;5053273;28;20599;-76
2021/03/15 11:19:16;;;;;;;6.00;1.38;;;20.70;92.80;;;;;;5023161;28;20417;-75
2021/03/15 11:21:46;;;;;;;11.20;1.98;;;18.90;95.90;;;;;;5035561;28;20224;-75
2021/03/15 11:24:14;;;;;;;7.53;1.83;;;17.70;97.50;;;;;;5053380;28;20167;-77
2021/03/15 11:26:48;;;;;;;4.95;2.00;;;19.40;97.10;;;;;;5052621;28;20213;-76
2021/03/15 11:29:15;;;;;;;10.57;2.20;;;21.00;95.30;;;;;;5053447;28;20254;-76
2021/03/15 11:31:50;;;;;;;11.40;1.67;;;22.20;93.80;;;;;;5051519;28;20663;-76
2021/03/15 11:34:22;;;;;;;7.75;1.92;;;21.40;94.10;;;;;;5052869;28;20650;-76
2021/03/15 11:36:49;;;;;;;6.35;1.25;;;21.20;94.70;;;;;;5052318;28;20287;-76
2021/03/15 11:39:15;;;;;;;8.20;1.80;;;20.00;94.40;;;;;;5053381;28;20281;-75
2021/03/15 11:41:42;;;;;;;4.53;1.73;;;19.90;95.20;;;;;;5034331;28;20198;-76
2021/03/15 11:44:08;;;;;;;7.88;1.40;;;19.60;96.10;;;;;;5053250;28;20170;-75
2021/03/15 11:46:34;;;;;;;4.85;1.23;;;18.70;96.00;;;;;;5035070;28;20167;-76
2021/03/15 11:49:00;;;;;;;8.05;1.40;;;17.10;96.60;;;;;;5035051;28;20528;-75
2021/03/15 11:51:26;;;;;;;7.43;1.13;;;15.90;98.40;;;;;;5052650;28;20182;-76
2021/03/15 11:53:52;;;;;;;5.82;1.27;;;14.70;99.90;;;;;;5034962;28;20189;-76
2021/03/15 11:56:20;;;;;;;4.38;1.52;;;13.70;99.90;;;;;;5053313;28;20647;-75
2021/03/15 11:58:46;;;;;;;11.77;1.60;;;12.90;99.90;;;;;;5018079;28;20219;-76
2021/03/15 12:01:12;;;;;;;6.32;1.58;;;12.90;99.90;;;;;;5056022;28;20281;-75
2021/03/15 12:03:37;;;;;;;7.97;1.35;;;13.00;99.90;;;;;;5038403;28;20172;-77
2021/03/15 12:06:04;;;;;;;7.45;1.50;;;14.00;99.90;;;;;;5056913;28;20221;-76
2021/03/15 12:08:30;;;;;;;8.45;1.73;;;15.60;99.90;;;;;;5039016;28;20172;-76
2021/03/15 12:10:57;;;;;;;6.57;1.77;;;15.00;99.90;;;;;;5039228;28;20178;-75
2021/03/15 12:13:25;;;;;;;5.60;1.95;;;14.10;99.90;;;;;;5039085;28;20263;-75
2021/03/15 12:15:51;;;;;;;3.85;1.30;;;13.70;99.90;;;;;;5038620;28;20283;-78
2021/03/15 12:18:17;;;;;;;16.15;1.70;;;14.30;99.90;;;;;;5048933;28;20203;-78
2021/03/15 12:20:44;;;;;;;7.00;1.48;;;14.30;99.90;;;;;;5022464;28;20214;-78
2021/03/15 12:23:10;;;;;;;9.80;1.40;;;14.40;99.90;;;;;;5015770;28;20259;-75
2021/03/15 12:25:37;;;;;;;5.97;1.30;;;14.40;99.90;;;;;;5041906;28;20224;-76
2021/03/15 12:28:04;;;;;;;4.43;0.95;;;14.40;99.90;;;;;;5038403;28;20186;-79
2021/03/15 12:30:30;;;;;;;5.95;1.10;;;14.00;99.90;;;;;;5038198;28;20642;-76
2021/03/15 12:32:57;;;;;;;3.25;1.33;;;13.70;99.90;;;;;;5055885;28;20187;-79
2021/03/15 12:35:24;;;;;;;4.53;0.98;;;13.50;99.90;;;;;;5038303;28;20290;-78
2021/03/15 12:37:51;;;;;;;8.55;0.85;;;13.70;99.90;;;;;;5055773;28;20258;-78
2021/03/15 12:40:20;;;;;;;3.03;1.38;;;13.90;99.90;;;;;;5055670;28;20171;-75
2021/03/15 12:42:46;;;;;;;9.65;1.55;;;14.10;99.90;;;;;;5055900;28;20237;-77
2021/03/15 12:45:12;;;;;;;3.75;1.10;;;14.10;99.90;;;;;;5037466;28;20631;-74
2021/03/15 12:47:38;;;;;;;5.75;1.00;;;13.80;99.90;;;;;;5055091;28;20179;-75
2021/03/15 12:50:05;;;;;;;4.38;0.90;;;15.30;99.90;;;;;;5037915;28;20221;-75
2021/03/15 12:52:31;;;;;;;3.72;1.05;;;16.10;99.90;;;;;;5055603;28;20221;-75
2021/03/15 12:54:57;;;;;;;3.47;1.00;;;15.80;99.90;;;;;;5036602;28;20569;-75
2021/03/15 12:57:23;;;;;;;3.60;1.25;;;15.50;99.90;;;;;;5037414;28;20203;-74
2021/03/15 12:59:51;;;;;;;7.53;1.13;;;14.10;99.90;;;;;;5055576;28;20170;-75
2021/03/15 13:02:17;;;;;;;2.08;0.77;;;13.80;99.90;;;;;;5054862;28;20171;-75
2021/03/15 13:04:43;;;;;;;9.38;1.17;;;13.30;99.90;;;;;;5037671;28;20183;-74
2021/03/15 13:07:09;;;;;;;3.20;0.95;;;13.10;99.90;;;;;;5037411;28;20270;-74
2021/03/15 13:09:35;;;;;;;5.72;1.48;;;12.70;99.90;;;;;;5021412;28;20176;-74
2021/03/15 13:12:00;;;;;;;5.57;1.42;;;12.30;99.90;;;;;;5054334;28;20176;-73
2021/03/15 13:14:26;;;;;;;8.20;1.48;;;12.30;99.90;;;;;;5037522;28;20522;-74
2021/03/15 13:16:52;;;;;;;5.20;1.27;;;12.50;99.90;;;;;;5055437;28;20171;-74